sensor_id;sensor_type;location;lat;lon;timestamp;pressure;altitude;pressure_sealevel;temperature;humidity
53908;BME280;40469;47.998;7.794;2023-04-20T00:00:36;98849.06;;;7.27;100.00
53908;BME280;40469;47.998;7.794;2023-04-20T00:03:02;98842.13;;;7.17;100.00
53908;BME280;40469;47.998;7.794;2023-04-20T00:05:27;98836.94;;;7.18;100.00
53908;BME280;40469;47.998;7.794;2023-04-20T00:07:54;98832.56;;;7.16;100.00
53908;BME280;40469;47.998;7.794;2023-04-20T00:10:19;98818.75;;;7.08;100.00
53908;BME280;40469;47.998;7.794;2023-04-20T00:12:44;98825.66;;;7.16;100.00
53908;BME280;40469;47.998;7.794;2023-04-20T00:15:10;98825.63;;;7.07;100.00
53908;BME280;40469;47.998;7.794;2023-04-20T00:17:36;98827.41;;;7.19;100.00
53908;BME280;40469;47.998;7.794;2023-04-20T00:20:02;98823.91;;;7.12;100.00
53908;BME280;40469;47.998;7.794;2023-04-20T00:22:29;98817.00;;;7.07;100.00
53908;BME280;40469;47.998;7.794;2023-04-20T00:24:55;98805.72;;;7.01;100.00
53908;BME280;40469;47.998;7.794;2023-04-20T00:27:20;98802.28;;;7.09;100.00
53908;BME280;40469;47.998;7.794;2023-04-20T00:29:45;98795.34;;;7.05;100.00
53908;BME280;40469;47.998;7.794;2023-04-20T00:32:11;98795.34;;;7.05;100.00
53908;BME280;40469;47.998;7.794;2023-04-20T00:34:36;98790.13;;;6.89;100.00
53908;BME280;40469;47.998;7.794;2023-04-20T00:37:01;98781.50;;;6.89;100.00
53908;BME280;40469;47.998;7.794;2023-04-20T00:39:27;98786.69;;;6.89;100.00
53908;BME280;40469;47.998;7.794;2023-04-20T00:41:52;98771.97;;;6.91;100.00
53908;BME280;40469;47.998;7.794;2023-04-20T00:44:17;98775.44;;;6.93;100.00
53908;BME280;40469;47.998;7.794;2023-04-20T00:46:43;98771.94;;;6.80;100.00
53908;BME280;40469;47.998;7.794;2023-04-20T00:49:09;98765.03;;;6.80;100.00
53908;BME280;40469;47.998;7.794;2023-04-20T00:51:35;98762.44;;;6.82;100.00
53908;BME280;40469;47.998;7.794;2023-04-20T00:54:01;98765.03;;;6.85;100.00
53908;BME280;40469;47.998;7.794;2023-04-20T00:56:26;98763.31;;;6.79;100.00
53908;BME280;40469;47.998;7.794;2023-04-20T00:58:52;98756.38;;;6.81;100.00
53908;BME280;40469;47.998;7.794;2023-04-20T01:01:17;98747.72;;;6.76;100.00
53908;BME280;40469;47.998;7.794;2023-04-20T01:03:44;98742.53;;;6.78;100.00
53908;BME280;40469;47.998;7.794;2023-04-20T01:06:09;98738.22;;;6.84;100.00
53908;BME280;40469;47.998;7.794;2023-04-20T01:08:46;98745.13;;;6.81;100.00
53908;BME280;40469;47.998;7.794;2023-04-20T01:11:11;98743.41;;;6.86;100.00
53908;BME280;40469;47.998;7.794;2023-04-20T01:13:37;98737.34;;;6.78;100.00
53908;BME280;40469;47.998;7.794;2023-04-20T01:16:02;98739.06;;;6.73;100.00
53908;BME280;40469;47.998;7.794;2023-04-20T01:18:28;98733.88;;;6.71;100.00
53908;BME280;40469;47.998;7.794;2023-04-20T01:20:53;98720.06;;;6.71;100.00
53908;BME280;40469;47.998;7.794;2023-04-20T01:23:18;98722.63;;;6.75;100.00
53908;BME280;40469;47.998;7.794;2023-04-20T01:25:44;98711.41;;;6.75;100.00
53908;BME280;40469;47.998;7.794;2023-04-20T01:28:09;98720.91;;;6.71;100.00
53908;BME280;40469;47.998;7.794;2023-04-20T01:30:36;98726.09;;;6.77;100.00
53908;BME280;40469;47.998;7.794;2023-04-20T01:33:02;98708.81;;;6.75;100.00
53908;BME280;40469;47.998;7.794;2023-04-20T01:35:27;98707.94;;;6.83;100.00
53908;BME280;40469;47.998;7.794;2023-04-20T01:37:53;98708.81;;;6.86;100.00
53908;BME280;40469;47.998;7.794;2023-04-20T01:40:18;98701.03;;;6.87;100.00
53908;BME280;40469;47.998;7.794;2023-04-20T01:42:43;98693.22;;;6.81;100.00
53908;BME280;40469;47.998;7.794;2023-04-20T01:45:09;98691.50;;;6.68;100.00
53908;BME280;40469;47.998;7.794;2023-04-20T01:47:35;98695.81;;;6.64;100.00
53908;BME280;40469;47.998;7.794;2023-04-20T01:50:01;98696.66;;;6.63;100.00
53908;BME280;40469;47.998;7.794;2023-04-20T01:52:26;98697.53;;;6.60;100.00
53908;BME280;40469;47.998;7.794;2023-04-20T01:54:52;98684.53;;;6.53;100.00
53908;BME280;40469;47.998;7.794;2023-04-20T01:57:17;98692.34;;;6.59;100.00
53908;BME280;40469;47.998;7.794;2023-04-20T01:59:43;98688.91;;;6.68;100.00
53908;BME280;40469;47.998;7.794;2023-04-20T02:02:08;98686.31;;;6.69;100.00
53908;BME280;40469;47.998;7.794;2023-04-20T02:04:34;98679.38;;;6.60;100.00
53908;BME280;40469;47.998;7.794;2023-04-20T02:06:59;98675.94;;;6.69;100.00
53908;BME280;40469;47.998;7.794;2023-04-20T02:09:24;98674.19;;;6.70;100.00
53908;BME280;40469;47.998;7.794;2023-04-20T02:11:50;98666.41;;;6.68;100.00
53908;BME280;40469;47.998;7.794;2023-04-20T02:14:15;98668.13;;;6.54;100.00
53908;BME280;40469;47.998;7.794;2023-04-20T02:16:41;98667.25;;;6.59;100.00
53908;BME280;40469;47.998;7.794;2023-04-20T02:19:06;98657.75;;;6.57;100.00
53908;BME280;40469;47.998;7.794;2023-04-20T02:21:33;98667.28;;;6.53;100.00
53908;BME280;40469;47.998;7.794;2023-04-20T02:23:58;98654.25;;;6.27;100.00
53908;BME280;40469;47.998;7.794;2023-04-20T02:26:23;98655.13;;;6.34;100.00
53908;BME280;40469;47.998;7.794;2023-04-20T02:28:49;98654.28;;;6.38;100.00
53908;BME280;40469;47.998;7.794;2023-04-20T02:31:14;98651.66;;;6.32;100.00
53908;BME280;40469;47.998;7.794;2023-04-20T02:33:39;98662.91;;;6.40;100.00
53908;BME280;40469;47.998;7.794;2023-04-20T02:36:05;98654.28;;;6.41;100.00
53908;BME280;40469;47.998;7.794;2023-04-20T02:38:31;98654.28;;;6.39;100.00
53908;BME280;40469;47.998;7.794;2023-04-20T02:40:56;98644.75;;;6.35;100.00
53908;BME280;40469;47.998;7.794;2023-04-20T02:43:22;98644.72;;;6.28;100.00
53908;BME280;40469;47.998;7.794;2023-04-20T02:45:47;98636.06;;;6.22;100.00
53908;BME280;40469;47.998;7.794;2023-04-20T02:48:12;98637.84;;;6.26;100.00
53908;BME280;40469;47.998;7.794;2023-04-20T02:50:38;98643.81;;;6.10;100.00
53908;BME280;40469;47.998;7.794;2023-04-20T02:53:03;98636.94;;;6.09;100.00
53908;BME280;40469;47.998;7.794;2023-04-20T02:55:29;98642.97;;;6.11;100.00
53908;BME280;40469;47.998;7.794;2023-04-20T02:57:55;98629.13;;;6.04;100.00
53908;BME280;40469;47.998;7.794;2023-04-20T03:00:21;98636.06;;;6.12;100.00
53908;BME280;40469;47.998;7.794;2023-04-20T03:02:47;98632.59;;;6.11;100.00
53908;BME280;40469;47.998;7.794;2023-04-20T03:05:12;98631.69;;;6.00;100.00
53908;BME280;40469;47.998;7.794;2023-04-20T03:07:38;98639.50;;;6.04;100.00
53908;BME280;40469;47.998;7.794;2023-04-20T03:10:03;98636.81;;;5.87;100.00
53908;BME280;40469;47.998;7.794;2023-04-20T03:12:29;98632.50;;;5.89;100.00
53908;BME280;40469;47.998;7.794;2023-04-20T03:14:55;98629.94;;;5.89;100.00
53908;BME280;40469;47.998;7.794;2023-04-20T03:17:21;98629.00;;;5.80;100.00
53908;BME280;40469;47.998;7.794;2023-04-20T03:19:46;98630.72;;;5.76;100.00
53908;BME280;40469;47.998;7.794;2023-04-20T03:22:12;98626.41;;;5.78;100.00
53908;BME280;40469;47.998;7.794;2023-04-20T03:24:37;98630.69;;;5.72;100.00
53908;BME280;40469;47.998;7.794;2023-04-20T03:27:02;98622.94;;;5.76;100.00
53908;BME280;40469;47.998;7.794;2023-04-20T03:29:28;98621.22;;;5.72;100.00
53908;BME280;40469;47.998;7.794;2023-04-20T03:31:53;98622.91;;;5.67;100.00
53908;BME280;40469;47.998;7.794;2023-04-20T03:34:18;98622.91;;;5.64;100.00
53908;BME280;40469;47.998;7.794;2023-04-20T03:36:44;98625.50;;;5.64;100.00
53908;BME280;40469;47.998;7.794;2023-04-20T03:39:09;98621.16;;;5.63;100.00
53908;BME280;40469;47.998;7.794;2023-04-20T03:41:35;98622.00;;;5.59;100.00
53908;BME280;40469;47.998;7.794;2023-04-20T03:44:00;98606.50;;;5.63;100.00
53908;BME280;40469;47.998;7.794;2023-04-20T03:46:26;98602.16;;;5.59;100.00
53908;BME280;40469;47.998;7.794;2023-04-20T03:48:51;98612.53;;;5.64;100.00
53908;BME280;40469;47.998;7.794;2023-04-20T03:51:16;98605.59;;;5.57;100.00
53908;BME280;40469;47.998;7.794;2023-04-20T03:53:42;98613.38;;;5.57;100.00
53908;BME280;40469;47.998;7.794;2023-04-20T03:56:07;98600.41;;;5.55;100.00
53908;BME280;40469;47.998;7.794;2023-04-20T03:58:32;98604.75;;;5.56;100.00
53908;BME280;40469;47.998;7.794;2023-04-20T04:01:05;98606.44;;;5.56;100.00
53908;BME280;40469;47.998;7.794;2023-04-20T04:03:32;98605.59;;;5.54;100.00
53908;BME280;40469;47.998;7.794;2023-04-20T04:05:57;98601.28;;;5.51;100.00
53908;BME280;40469;47.998;7.794;2023-04-20T04:08:23;98597.78;;;5.46;100.00
53908;BME280;40469;47.998;7.794;2023-04-20T04:10:48;98605.50;;;5.34;100.00
53908;BME280;40469;47.998;7.794;2023-04-20T04:13:14;98601.16;;;5.29;100.00
53908;BME280;40469;47.998;7.794;2023-04-20T04:15:39;98596.81;;;5.25;100.00
53908;BME280;40469;47.998;7.794;2023-04-20T04:18:04;98601.97;;;5.18;100.00
53908;BME280;40469;47.998;7.794;2023-04-20T04:20:30;98593.31;;;5.16;100.00
53908;BME280;40469;47.998;7.794;2023-04-20T04:22:55;98591.47;;;4.99;100.00
53908;BME280;40469;47.998;7.794;2023-04-20T04:25:21;98595.78;;;4.97;100.00
53908;BME280;40469;47.998;7.794;2023-04-20T04:27:47;98595.75;;;4.91;100.00
53908;BME280;40469;47.998;7.794;2023-04-20T04:30:13;98590.59;;;4.91;100.00
53908;BME280;40469;47.998;7.794;2023-04-20T04:32:38;98593.97;;;4.82;100.00
53908;BME280;40469;47.998;7.794;2023-04-20T04:35:04;98594.81;;;4.83;100.00
53908;BME280;40469;47.998;7.794;2023-04-20T04:37:29;98602.53;;;4.73;100.00
53908;BME280;40469;47.998;7.794;2023-04-20T04:39:55;98600.78;;;4.72;100.00
53908;BME280;40469;47.998;7.794;2023-04-20T04:42:22;98603.31;;;4.69;100.00
53908;BME280;40469;47.998;7.794;2023-04-20T04:44:48;98603.31;;;4.66;100.00
53908;BME280;40469;47.998;7.794;2023-04-20T04:47:15;98574.72;;;4.45;100.00
53908;BME280;40469;47.998;7.794;2023-04-20T04:49:41;98603.25;;;4.55;100.00
53908;BME280;40469;47.998;7.794;2023-04-20T04:52:08;98595.47;;;4.54;100.00
53908;BME280;40469;47.998;7.794;2023-04-20T04:54:33;98598.94;;;4.56;100.00
53908;BME280;40469;47.998;7.794;2023-04-20T04:56:59;98591.81;;;4.32;100.00
53908;BME280;40469;47.998;7.794;2023-04-20T04:59:24;98589.22;;;4.30;100.00
53908;BME280;40469;47.998;7.794;2023-04-20T05:01:49;98608.16;;;4.28;100.00
53908;BME280;40469;47.998;7.794;2023-04-20T05:04:15;98597.84;;;4.29;100.00
53908;BME280;40469;47.998;7.794;2023-04-20T05:06:40;98600.41;;;4.29;100.00
53908;BME280;40469;47.998;7.794;2023-04-20T05:09:05;98597.75;;;4.20;100.00
53908;BME280;40469;47.998;7.794;2023-04-20T05:11:31;98602.88;;;4.15;100.00
53908;BME280;40469;47.998;7.794;2023-04-20T05:13:56;98606.22;;;4.07;100.00
53908;BME280;40469;47.998;7.794;2023-04-20T05:16:21;98610.53;;;4.09;100.00
53908;BME280;40469;47.998;7.794;2023-04-20T05:18:47;98609.63;;;4.01;100.00
53908;BME280;40469;47.998;7.794;2023-04-20T05:21:12;98612.03;;;3.86;100.00
53908;BME280;40469;47.998;7.794;2023-04-20T05:23:38;98612.84;;;3.85;100.00
53908;BME280;40469;47.998;7.794;2023-04-20T05:26:03;98604.88;;;3.63;100.00
53908;BME280;40469;47.998;7.794;2023-04-20T05:28:28;98619.53;;;3.64;100.00
53908;BME280;40469;47.998;7.794;2023-04-20T05:30:54;98611.75;;;3.63;100.00
53908;BME280;40469;47.998;7.794;2023-04-20T05:33:20;98610.88;;;3.60;100.00
53908;BME280;40469;47.998;7.794;2023-04-20T05:35:45;98614.34;;;3.64;100.00
53908;BME280;40469;47.998;7.794;2023-04-20T05:38:11;98616.88;;;3.61;100.00
53908;BME280;40469;47.998;7.794;2023-04-20T05:40:36;98613.34;;;3.53;100.00
53908;BME280;40469;47.998;7.794;2023-04-20T05:43:01;98616.75;;;3.50;100.00
53908;BME280;40469;47.998;7.794;2023-04-20T05:45:27;98608.06;;;3.44;100.00
53908;BME280;40469;47.998;7.794;2023-04-20T05:47:56;98615.78;;;3.39;100.00
53908;BME280;40469;47.998;7.794;2023-04-20T05:50:23;98621.81;;;3.44;100.00
53908;BME280;40469;47.998;7.794;2023-04-20T05:52:49;98618.38;;;3.42;100.00
53908;BME280;40469;47.998;7.794;2023-04-20T05:55:15;98620.13;;;3.43;100.00
53908;BME280;40469;47.998;7.794;2023-04-20T05:57:40;98610.66;;;3.45;100.00
53908;BME280;40469;47.998;7.794;2023-04-20T06:00:16;98607.31;;;3.52;100.00
53908;BME280;40469;47.998;7.794;2023-04-20T06:02:42;98613.50;;;3.65;100.00
53908;BME280;40469;47.998;7.794;2023-04-20T06:05:09;98616.84;;;3.58;100.00
53908;BME280;40469;47.998;7.794;2023-04-20T06:07:35;98603.19;;;3.64;100.00
53908;BME280;40469;47.998;7.794;2023-04-20T06:10:00;98613.59;;;3.73;100.00
53908;BME280;40469;47.998;7.794;2023-04-20T06:12:27;98611.06;;;3.77;100.00
53908;BME280;40469;47.998;7.794;2023-04-20T06:14:56;98620.63;;;3.86;100.00
53908;BME280;40469;47.998;7.794;2023-04-20T06:17:22;98618.13;;;3.92;100.00
53908;BME280;40469;47.998;7.794;2023-04-20T06:19:47;98611.31;;;4.02;100.00
53908;BME280;40469;47.998;7.794;2023-04-20T06:22:13;98610.53;;;4.09;100.00
53908;BME280;40469;47.998;7.794;2023-04-20T06:24:38;98610.63;;;4.17;100.00
53908;BME280;40469;47.998;7.794;2023-04-20T06:27:07;98602.94;;;4.20;100.00
53908;BME280;40469;47.998;7.794;2023-04-20T06:29:32;98612.47;;;4.27;100.00
53908;BME280;40469;47.998;7.794;2023-04-20T06:31:57;98606.47;;;4.31;100.00
53908;BME280;40469;47.998;7.794;2023-04-20T06:34:23;98607.41;;;4.38;100.00
53908;BME280;40469;47.998;7.794;2023-04-20T06:36:48;98605.75;;;4.45;100.00
53908;BME280;40469;47.998;7.794;2023-04-20T06:39:15;98606.69;;;4.58;100.00
53908;BME280;40469;47.998;7.794;2023-04-20T06:41:41;98609.28;;;4.58;100.00
53908;BME280;40469;47.998;7.794;2023-04-20T06:44:07;98600.72;;;4.65;100.00
53908;BME280;40469;47.998;7.794;2023-04-20T06:46:32;98608.56;;;4.75;100.00
53908;BME280;40469;47.998;7.794;2023-04-20T06:48:58;98614.66;;;4.84;100.00
53908;BME280;40469;47.998;7.794;2023-04-20T06:51:24;98613.78;;;4.80;100.00
53908;BME280;40469;47.998;7.794;2023-04-20T06:53:49;98617.28;;;4.85;100.00
53908;BME280;40469;47.998;7.794;2023-04-20T06:56:14;98617.25;;;4.87;100.00
53908;BME280;40469;47.998;7.794;2023-04-20T06:58:40;98609.50;;;4.85;100.00
53908;BME280;40469;47.998;7.794;2023-04-20T07:01:05;98606.09;;;4.89;100.00
53908;BME280;40469;47.998;7.794;2023-04-20T07:03:30;98600.91;;;4.89;100.00
53908;BME280;40469;47.998;7.794;2023-04-20T07:05:56;98613.03;;;4.98;100.00
53908;BME280;40469;47.998;7.794;2023-04-20T07:08:21;98607.84;;;4.97;100.00
53908;BME280;40469;47.998;7.794;2023-04-20T07:10:46;98600.94;;;4.91;100.00
53908;BME280;40469;47.998;7.794;2023-04-20T07:13:12;98605.25;;;4.95;100.00
53908;BME280;40469;47.998;7.794;2023-04-20T07:15:37;98605.34;;;5.09;100.00
53908;BME280;40469;47.998;7.794;2023-04-20T07:18:03;98595.00;;;5.07;100.00
53908;BME280;40469;47.998;7.794;2023-04-20T07:20:28;98604.56;;;5.19;100.00
53908;BME280;40469;47.998;7.794;2023-04-20T07:22:54;98607.97;;;5.17;100.00
53908;BME280;40469;47.998;7.794;2023-04-20T07:25:19;98598.50;;;5.14;100.00
53908;BME280;40469;47.998;7.794;2023-04-20T07:27:44;98592.50;;;5.21;100.00
53908;BME280;40469;47.998;7.794;2023-04-20T07:30:10;98594.19;;;5.22;100.00
53908;BME280;40469;47.998;7.794;2023-04-20T07:32:36;98597.69;;;5.27;100.00
53908;BME280;40469;47.998;7.794;2023-04-20T07:35:03;98605.44;;;5.27;100.00
53908;BME280;40469;47.998;7.794;2023-04-20T07:37:29;98598.53;;;5.23;100.00
53908;BME280;40469;47.998;7.794;2023-04-20T07:39:55;98591.63;;;5.21;100.00
53908;BME280;40469;47.998;7.794;2023-04-20T07:42:21;98604.63;;;5.30;100.00
53908;BME280;40469;47.998;7.794;2023-04-20T07:44:46;98591.63;;;5.21;100.00
53908;BME280;40469;47.998;7.794;2023-04-20T07:47:12;98598.53;;;5.22;100.00
53908;BME280;40469;47.998;7.794;2023-04-20T07:49:38;98594.25;;;5.28;100.00
53908;BME280;40469;47.998;7.794;2023-04-20T07:52:05;98593.41;;;5.36;100.00
53908;BME280;40469;47.998;7.794;2023-04-20T07:54:30;98594.31;;;5.42;100.00
53908;BME280;40469;47.998;7.794;2023-04-20T07:56:57;98596.88;;;5.36;100.00
53908;BME280;40469;47.998;7.794;2023-04-20T07:59:22;98592.59;;;5.44;100.00
53908;BME280;40469;47.998;7.794;2023-04-20T08:01:48;98595.25;;;5.58;100.00
53908;BME280;40469;47.998;7.794;2023-04-20T08:04:14;98582.31;;;5.60;100.00
53908;BME280;40469;47.998;7.794;2023-04-20T08:06:39;98585.81;;;5.73;100.00
53908;BME280;40469;47.998;7.794;2023-04-20T08:09:05;98574.63;;;5.83;100.00
53908;BME280;40469;47.998;7.794;2023-04-20T08:11:30;98579.78;;;5.80;100.00
53908;BME280;40469;47.998;7.794;2023-04-20T08:13:55;98580.69;;;5.89;100.00
53908;BME280;40469;47.998;7.794;2023-04-20T08:16:21;98576.44;;;6.01;100.00
53908;BME280;40469;47.998;7.794;2023-04-20T08:18:46;98566.06;;;6.08;100.00
53908;BME280;40469;47.998;7.794;2023-04-20T08:21:11;98564.38;;;6.20;100.00
53908;BME280;40469;47.998;7.794;2023-04-20T08:23:37;98556.59;;;6.21;100.00
53908;BME280;40469;47.998;7.794;2023-04-20T08:26:03;98566.97;;;6.23;100.00
53908;BME280;40469;47.998;7.794;2023-04-20T08:28:28;98560.06;;;6.36;100.00
53908;BME280;40469;47.998;7.794;2023-04-20T08:30:54;98561.78;;;6.43;100.00
53908;BME280;40469;47.998;7.794;2023-04-20T08:33:19;98560.94;;;6.62;100.00
53908;BME280;40469;47.998;7.794;2023-04-20T08:35:45;98561.78;;;6.77;100.00
53908;BME280;40469;47.998;7.794;2023-04-20T08:38:10;98566.97;;;6.83;100.00
53908;BME280;40469;47.998;7.794;2023-04-20T08:40:36;98560.88;;;6.81;100.00
53908;BME280;40469;47.998;7.794;2023-04-20T08:43:02;98566.94;;;7.01;100.00
53908;BME280;40469;47.998;7.794;2023-04-20T08:45:28;98562.63;;;6.96;100.00
53908;BME280;40469;47.998;7.794;2023-04-20T08:47:57;98559.13;;;7.00;100.00
53908;BME280;40469;47.998;7.794;2023-04-20T08:50:22;98553.09;;;6.98;100.00
53908;BME280;40469;47.998;7.794;2023-04-20T08:52:47;98558.25;;;7.10;100.00
53908;BME280;40469;47.998;7.794;2023-04-20T08:55:17;98561.72;;;7.20;100.00
53908;BME280;40469;47.998;7.794;2023-04-20T08:57:43;98553.88;;;7.26;100.00
53908;BME280;40469;47.998;7.794;2023-04-20T09:00:09;98556.44;;;7.38;100.00
53908;BME280;40469;47.998;7.794;2023-04-20T09:02:36;98548.66;;;7.42;100.00
53908;BME280;40469;47.998;7.794;2023-04-20T09:05:12;98555.50;;;7.61;100.00
53908;BME280;40469;47.998;7.794;2023-04-20T09:07:37;98551.91;;;7.84;100.00
53908;BME280;40469;47.998;7.794;2023-04-20T09:10:03;98549.25;;;7.93;100.00
53908;BME280;40469;47.998;7.794;2023-04-20T09:12:39;98547.38;;;8.13;100.00
53908;BME280;40469;47.998;7.794;2023-04-20T09:15:05;98543.81;;;8.33;100.00
53908;BME280;40469;47.998;7.794;2023-04-20T09:17:32;98534.19;;;8.44;100.00
53908;BME280;40469;47.998;7.794;2023-04-20T09:19:58;98521.09;;;8.53;100.00
53908;BME280;40469;47.998;7.794;2023-04-20T09:22:34;98543.53;;;8.67;100.00
53908;BME280;40469;47.998;7.794;2023-04-20T09:25:11;98536.63;;;8.63;100.00
53908;BME280;40469;47.998;7.794;2023-04-20T09:27:37;98529.75;;;8.57;100.00
53908;BME280;40469;47.998;7.794;2023-04-20T09:30:02;98528.66;;;8.80;100.00
53908;BME280;40469;47.998;7.794;2023-04-20T09:32:28;98529.50;;;8.85;100.00
53908;BME280;40469;47.998;7.794;2023-04-20T09:34:54;98526.88;;;8.88;100.00
53908;BME280;40469;47.998;7.794;2023-04-20T09:37:20;98519.81;;;8.96;100.00
53908;BME280;40469;47.998;7.794;2023-04-20T09:39:47;98522.44;;;8.95;100.00
53908;BME280;40469;47.998;7.794;2023-04-20T09:42:14;98525.91;;;8.95;100.00
53908;BME280;40469;47.998;7.794;2023-04-20T09:44:39;98510.44;;;8.81;100.00
53908;BME280;40469;47.998;7.794;2023-04-20T09:47:06;98517.34;;;8.85;100.00
53908;BME280;40469;47.998;7.794;2023-04-20T09:49:32;98512.94;;;8.90;100.00
53908;BME280;40469;47.998;7.794;2023-04-20T09:52:01;98518.88;;;9.03;100.00
53908;BME280;40469;47.998;7.794;2023-04-20T09:54:27;98509.19;;;9.16;100.00
53908;BME280;40469;47.998;7.794;2023-04-20T09:56:53;98514.25;;;9.30;100.00
53908;BME280;40469;47.998;7.794;2023-04-20T09:59:20;98515.72;;;9.51;100.00
53908;BME280;40469;47.998;7.794;2023-04-20T10:01:46;98518.03;;;9.74;100.00
53908;BME280;40469;47.998;7.794;2023-04-20T10:04:11;98506.38;;;9.35;100.00
53908;BME280;40469;47.998;7.794;2023-04-20T10:06:39;98512.38;;;9.40;100.00
53908;BME280;40469;47.998;7.794;2023-04-20T10:09:06;98510.22;;;9.73;100.00
53908;BME280;40469;47.998;7.794;2023-04-20T10:11:33;98517.13;;;9.75;100.00
53908;BME280;40469;47.998;7.794;2023-04-20T10:14:12;98514.78;;;9.57;100.00
53908;BME280;40469;47.998;7.794;2023-04-20T10:16:38;98507.31;;;9.29;100.00
53908;BME280;40469;47.998;7.794;2023-04-20T10:19:04;98502.50;;;9.63;100.00
53908;BME280;40469;47.998;7.794;2023-04-20T10:21:30;98493.63;;;9.80;100.00
53908;BME280;40469;47.998;7.794;2023-04-20T10:23:59;98506.47;;;9.92;100.00
53908;BME280;40469;47.998;7.794;2023-04-20T10:26:40;98514.31;;;9.92;100.00
53908;BME280;40469;47.998;7.794;2023-04-20T10:29:06;98509.44;;;9.66;100.00
53908;BME280;40469;47.998;7.794;2023-04-20T10:31:39;98511.19;;;9.65;100.00
53908;BME280;40469;47.998;7.794;2023-04-20T10:34:05;98495.56;;;9.65;100.00
53908;BME280;40469;47.998;7.794;2023-04-20T10:36:35;98501.84;;;9.49;100.00
53908;BME280;40469;47.998;7.794;2023-04-20T10:39:15;98504.66;;;9.34;100.00
53908;BME280;40469;47.998;7.794;2023-04-20T10:41:52;98502.97;;;9.26;100.00
53908;BME280;40469;47.998;7.794;2023-04-20T10:44:18;98499.53;;;9.24;100.00
53908;BME280;40469;47.998;7.794;2023-04-20T10:46:47;98493.41;;;9.30;100.00
53908;BME280;40469;47.998;7.794;2023-04-20T10:49:13;98494.94;;;9.46;100.00
53908;BME280;40469;47.998;7.794;2023-04-20T10:51:46;98487.75;;;9.64;100.00
53908;BME280;40469;47.998;7.794;2023-04-20T10:54:11;98490.25;;;9.72;100.00
53908;BME280;40469;47.998;7.794;2023-04-20T10:59:07;98487.47;;;9.82;100.00
53908;BME280;40469;47.998;7.794;2023-04-20T11:01:33;98477.97;;;9.80;100.00
53908;BME280;40469;47.998;7.794;2023-04-20T11:03:58;98471.03;;;9.77;100.00
53908;BME280;40469;47.998;7.794;2023-04-20T11:06:24;98477.03;;;9.84;100.00
53908;BME280;40469;47.998;7.794;2023-04-20T11:08:50;98471.88;;;9.79;100.00
53908;BME280;40469;47.998;7.794;2023-04-20T11:11:25;98473.47;;;9.90;100.00
53908;BME280;40469;47.998;7.794;2023-04-20T11:14:07;98472.56;;;9.92;100.00
53908;BME280;40469;47.998;7.794;2023-04-20T11:16:33;98473.19;;;10.08;100.00
53908;BME280;40469;47.998;7.794;2023-04-20T11:19:00;98465.78;;;9.82;100.00
53908;BME280;40469;47.998;7.794;2023-04-20T11:21:39;98461.22;;;9.96;100.00
53908;BME280;40469;47.998;7.794;2023-04-20T11:24:16;98463.66;;;10.05;100.00
53908;BME280;40469;47.998;7.794;2023-04-20T11:26:43;98466.44;;;9.95;100.00
53908;BME280;40469;47.998;7.794;2023-04-20T11:29:08;98468.84;;;10.07;100.00
53908;BME280;40469;47.998;7.794;2023-04-20T11:31:34;98470.88;;;9.88;100.00
53908;BME280;40469;47.998;7.794;2023-04-20T11:33:59;98477.78;;;9.94;100.00
53908;BME280;40469;47.998;7.794;2023-04-20T11:36:26;98472.66;;;9.86;100.00
53908;BME280;40469;47.998;7.794;2023-04-20T11:38:53;98476.41;;;9.66;100.00
53908;BME280;40469;47.998;7.794;2023-04-20T11:41:20;98476.00;;;9.34;100.00
53908;BME280;40469;47.998;7.794;2023-04-20T11:43:46;98469.03;;;9.34;100.00
53908;BME280;40469;47.998;7.794;2023-04-20T11:46:17;98473.44;;;9.29;100.00
53908;BME280;40469;47.998;7.794;2023-04-20T11:48:43;98460.31;;;9.35;100.00
53908;BME280;40469;47.998;7.794;2023-04-20T11:51:08;98468.84;;;9.49;100.00
53908;BME280;40469;47.998;7.794;2023-04-20T11:53:34;98462.00;;;9.41;100.00
53908;BME280;40469;47.998;7.794;2023-04-20T11:55:59;98470.81;;;9.30;100.00
53908;BME280;40469;47.998;7.794;2023-04-20T11:58:24;98466.44;;;9.33;100.00
53908;BME280;40469;47.998;7.794;2023-04-20T12:00:50;98455.72;;;9.54;100.00
53908;BME280;40469;47.998;7.794;2023-04-20T12:03:15;98459.78;;;9.75;100.00
53908;BME280;40469;47.998;7.794;2023-04-20T12:05:41;98457.63;;;10.03;100.00
53908;BME280;40469;47.998;7.794;2023-04-20T12:08:07;98459.63;;;10.42;100.00
53908;BME280;40469;47.998;7.794;2023-04-20T12:10:32;98452.66;;;10.42;100.00
53908;BME280;40469;47.998;7.794;2023-04-20T12:12:58;98455.72;;;10.66;100.00
53908;BME280;40469;47.998;7.794;2023-04-20T12:15:25;98447.72;;;10.75;100.00
53908;BME280;40469;47.998;7.794;2023-04-20T12:17:50;98442.13;;;10.49;100.00
53908;BME280;40469;47.998;7.794;2023-04-20T12:20:16;98441.25;;;10.95;100.00
53908;BME280;40469;47.998;7.794;2023-04-20T12:22:41;98435.09;;;10.52;100.00
53908;BME280;40469;47.998;7.794;2023-04-20T12:25:07;98440.69;;;10.79;100.00
53908;BME280;40469;47.998;7.794;2023-04-20T12:27:32;98436.09;;;10.90;100.00
53908;BME280;40469;47.998;7.794;2023-04-20T12:29:58;98434.16;;;10.55;100.00
53908;BME280;40469;47.998;7.794;2023-04-20T12:32:23;98429.03;;;9.97;100.00
53908;BME280;40469;47.998;7.794;2023-04-20T12:34:48;98425.72;;;9.86;100.00
53908;BME280;40469;47.998;7.794;2023-04-20T12:37:14;98428.13;;;9.98;100.00
53908;BME280;40469;47.998;7.794;2023-04-20T12:39:39;98414.66;;;10.74;100.00
53908;BME280;40469;47.998;7.794;2023-04-20T12:42:04;98426.09;;;11.53;100.00
53908;BME280;40469;47.998;7.794;2023-04-20T12:44:30;98421.19;;;10.95;100.00
53908;BME280;40469;47.998;7.794;2023-04-20T12:46:55;98416.44;;;11.16;100.00
53908;BME280;40469;47.998;7.794;2023-04-20T12:49:21;98416.81;;;10.97;100.00
53908;BME280;40469;47.998;7.794;2023-04-20T12:51:46;98411.22;;;11.55;100.00
53908;BME280;40469;47.998;7.794;2023-04-20T12:54:11;98407.91;;;11.47;100.00
53908;BME280;40469;47.998;7.794;2023-04-20T12:56:37;98410.88;;;12.08;100.00